createdAt,value
2023-01-07T00:57:36.669Z,6.70
2023-01-07T01:10:11.992Z,6.70
2023-01-07T01:42:57.426Z,6.40
2023-01-07T01:45:28.902Z,6.40
2023-01-07T01:48:02.453Z,6.40
2023-01-07T01:50:35.509Z,6.40
2023-01-07T01:53:10.607Z,6.50
2023-01-07T01:55:50.357Z,6.50
2023-01-07T01:58:28.514Z,6.50
2023-01-07T02:03:33.956Z,6.40
2023-01-07T02:06:04.616Z,8.70
2023-01-07T02:11:32.655Z,6.40
2023-01-07T02:14:21.489Z,6.40
2023-01-07T02:17:00.783Z,6.40
2023-01-07T02:20:01.696Z,6.40
2023-01-07T02:22:54.082Z,6.60
2023-01-07T02:25:55.300Z,6.40
2023-01-07T02:28:52.401Z,6.40
2023-01-07T02:31:50.572Z,6.40
2023-01-07T02:34:29.974Z,6.40
2023-01-07T02:37:06.878Z,6.40
2023-01-07T02:39:47.577Z,6.40
2023-01-07T02:42:27.904Z,6.40
2023-01-07T02:45:05.729Z,6.40
2023-01-07T02:47:41.790Z,6.40
2023-01-07T02:55:17.861Z,6.30
2023-01-07T02:58:29.851Z,6.20
2023-01-07T03:01:23.052Z,6.30
2023-01-07T03:04:15.359Z,6.30
2023-01-07T03:06:59.227Z,6.30
2023-01-07T03:09:36.959Z,6.30
2023-01-07T03:12:13.988Z,6.30
2023-01-07T03:14:48.538Z,6.30
2023-01-07T03:17:23.252Z,6.30
2023-01-07T03:19:57.873Z,6.30
2023-01-07T03:22:31.933Z,6.30
2023-01-07T03:25:04.441Z,6.30
2023-01-07T03:27:38.068Z,6.30
2023-01-07T03:30:13.484Z,6.30
2023-01-07T03:32:47.466Z,6.30
2023-01-07T03:35:21.805Z,6.20
2023-01-07T03:37:53.302Z,6.20
2023-01-07T03:40:24.324Z,6.20
2023-01-07T03:45:27.184Z,6.20
2023-01-07T03:47:59.827Z,8.50
2023-01-07T03:50:39.567Z,6.20
2023-01-07T04:05:53.355Z,6.10
2023-01-07T04:20:58.712Z,6.10
2023-01-07T04:31:01.921Z,6.10
2023-01-07T04:36:06.935Z,6.10
2023-01-07T04:51:14.086Z,6.10
2023-01-07T05:06:21.738Z,6.00
2023-01-07T05:21:37.144Z,6.00
2023-01-07T05:36:43.929Z,6.00
2023-01-07T05:51:49.516Z,6.00
2023-01-07T06:06:53.827Z,5.90
2023-01-07T06:21:59.597Z,5.90
2023-01-07T06:32:01.362Z,5.90
2023-01-07T06:37:04.554Z,5.90
2023-01-07T06:52:08.505Z,5.90
2023-01-07T06:54:38.499Z,6.00
2023-01-07T07:07:12.251Z,5.90
2023-01-07T07:37:21.021Z,5.90
2023-01-07T07:52:25.777Z,6.00
2023-01-07T08:00:17.513Z,6.00
2023-01-07T08:07:51.280Z,6.10
2023-01-07T08:18:00.404Z,6.30
2023-01-07T08:23:05.063Z,6.30
2023-01-07T08:33:08.077Z,6.40
2023-01-07T08:35:38.384Z,6.60
2023-01-07T08:38:12.359Z,6.40
2023-01-07T08:53:16.200Z,6.50
2023-01-07T09:05:49.239Z,6.60
2023-01-07T09:08:21.798Z,6.70
2023-01-07T09:23:26.707Z,6.60
2023-01-07T09:28:28.084Z,6.70
2023-01-07T09:38:31.764Z,6.90
2023-01-07T09:44:00.647Z,6.90
2023-01-07T09:49:04.652Z,6.90
2023-01-07T09:51:40.037Z,6.90
2023-01-07T09:54:22.575Z,7.00
2023-01-07T10:01:58.622Z,7.00
2023-01-07T10:04:37.056Z,7.10
2023-01-07T10:07:16.602Z,7.10
2023-01-07T10:10:10.535Z,7.20
2023-01-07T10:12:48.996Z,7.20
2023-01-07T10:15:42.604Z,7.10
2023-01-07T10:18:31.643Z,7.20
2023-01-07T10:21:11.356Z,7.20
2023-01-07T10:23:44.387Z,7.20
2023-01-07T10:26:32.005Z,7.20
2023-01-07T10:29:07.433Z,7.20
2023-01-07T10:34:15.545Z,7.20
2023-01-07T10:36:57.715Z,7.30
2023-01-07T10:39:35.345Z,7.30
2023-01-07T10:42:14.485Z,7.40
2023-01-07T10:45:16.063Z,7.40
2023-01-07T10:48:25.111Z,7.50
2023-01-07T10:51:05.661Z,7.50
2023-01-07T10:53:47.831Z,7.60
2023-01-07T10:56:26.208Z,7.50
2023-01-07T10:58:58.950Z,7.60
2023-01-07T11:01:31.191Z,7.60
2023-01-07T11:04:02.610Z,7.70
2023-01-07T11:06:41.462Z,7.70
2023-01-07T11:09:17.634Z,7.80
2023-01-07T11:11:49.684Z,7.80
2023-01-07T11:14:25.646Z,7.90
2023-01-07T11:17:00.168Z,8.00
2023-01-07T11:19:46.253Z,8.10
2023-01-07T11:22:34.976Z,8.20
2023-01-07T11:25:10.629Z,8.30
2023-01-07T11:30:25.998Z,8.40
2023-01-07T11:32:59.739Z,8.50
2023-01-07T11:35:31.255Z,8.70
2023-01-07T11:38:02.505Z,8.60
2023-01-07T11:40:34.305Z,8.60
2023-01-07T11:43:05.968Z,8.60
2023-01-07T11:45:41.002Z,8.60
2023-01-07T11:48:13.211Z,8.00
2023-01-07T11:50:45.035Z,8.60
2023-01-07T11:53:32.253Z,10.00
2023-01-07T11:56:06.402Z,8.60
2023-01-07T11:58:38.762Z,8.60
2023-01-07T12:01:19.365Z,8.60
2023-01-07T12:04:13.913Z,8.60
2023-01-07T12:06:47.484Z,8.60
2023-01-07T12:09:36.056Z,8.60
2023-01-07T12:12:37.983Z,8.60
2023-01-07T12:15:19.597Z,8.60
2023-01-07T12:17:58.674Z,8.60
2023-01-07T12:20:44.278Z,8.50
2023-01-07T12:23:28.651Z,8.80
2023-01-07T12:26:05.803Z,8.80
2023-01-07T12:28:59.756Z,8.80
2023-01-07T12:31:42.552Z,8.90
2023-01-07T12:34:26.333Z,8.90
2023-01-07T12:37:02.244Z,8.90
2023-01-07T12:39:38.126Z,8.90
2023-01-07T12:42:15.140Z,8.90
2023-01-07T12:44:51.240Z,8.80
2023-01-07T12:47:30.537Z,8.90
2023-01-07T12:50:13.551Z,8.90
2023-01-07T12:52:46.709Z,8.90
2023-01-07T12:55:22.096Z,8.90
2023-01-07T12:58:03.149Z,8.90
2023-01-07T13:00:37.925Z,8.70
2023-01-07T13:03:25.064Z,8.80
2023-01-07T13:06:02.674Z,8.80
2023-01-07T13:08:44.302Z,8.80
2023-01-07T13:11:45.026Z,8.80
2023-01-07T13:14:23.911Z,8.80
2023-01-07T13:16:55.009Z,9.00
2023-01-07T13:21:58.295Z,9.00
2023-01-07T13:24:55.204Z,9.00
2023-01-07T13:27:34.384Z,9.00
2023-01-07T13:30:18.563Z,8.90
2023-01-07T13:33:10.913Z,8.90
2023-01-07T13:36:03.343Z,8.80
2023-01-07T13:39:04.999Z,8.60
2023-01-07T13:41:49.763Z,9.10
2023-01-07T13:44:39.671Z,9.20
2023-01-07T13:47:14.043Z,9.30
2023-01-07T13:49:56.533Z,9.30
2023-01-07T13:52:30.664Z,9.30
2023-01-07T13:55:04.977Z,9.20
2023-01-07T13:57:47.529Z,9.20
2023-01-07T14:00:42.825Z,8.90
2023-01-07T14:03:38.288Z,8.70
2023-01-07T14:06:44.258Z,9.00
2023-01-07T14:09:50.175Z,9.00
2023-01-07T14:12:50.561Z,9.10
2023-01-07T14:15:55.498Z,9.00
2023-01-07T14:18:44.289Z,8.70
2023-01-07T14:21:24.916Z,9.00
2023-01-07T14:24:08.121Z,8.90
2023-01-07T14:26:43.429Z,8.90
2023-01-07T14:29:42.142Z,9.00
2023-01-07T14:32:30.975Z,8.70
2023-01-07T14:35:07.690Z,8.60
2023-01-07T14:37:40.395Z,8.50
2023-01-07T14:40:40.542Z,8.30
2023-01-07T14:43:40.186Z,8.30
2023-01-07T14:46:15.738Z,8.10
2023-01-07T14:51:39.028Z,8.20
2023-01-07T14:54:41.429Z,8.00
2023-01-07T14:57:25.977Z,7.90
2023-01-07T15:00:28.405Z,7.90
2023-01-07T15:03:29.708Z,7.80
2023-01-07T15:06:25.884Z,7.70
2023-01-07T15:09:13.328Z,7.60
2023-01-07T15:11:57.315Z,7.40
2023-01-07T15:14:43.649Z,7.30
2023-01-07T15:17:17.025Z,7.20
2023-01-07T15:19:49.521Z,7.10
2023-01-07T15:22:54.405Z,7.10
2023-01-07T15:25:34.511Z,6.90
2023-01-07T15:28:12.977Z,6.80
2023-01-07T15:30:52.491Z,6.70
2023-01-07T15:33:41.476Z,6.50
2023-01-07T15:36:16.605Z,6.50
2023-01-07T15:38:50.839Z,6.40
2023-01-07T15:41:40.336Z,6.00
2023-01-07T15:44:18.868Z,6.20
2023-01-07T15:49:23.255Z,6.00
2023-01-07T15:51:57.249Z,5.90
2023-01-07T15:54:31.916Z,5.80
2023-01-07T15:57:15.848Z,5.70
2023-01-07T15:59:48.477Z,5.60
2023-01-07T16:02:24.820Z,5.50
2023-01-07T16:07:30.905Z,5.40
2023-01-07T16:10:02.032Z,5.30
2023-01-07T16:12:34.626Z,5.20
2023-01-07T16:20:13.653Z,5.00
2023-01-07T16:22:47.019Z,4.90
2023-01-07T16:25:24.425Z,4.80
2023-01-07T16:27:55.647Z,5.00
2023-01-07T16:35:34.771Z,4.50
2023-01-07T16:38:08.348Z,4.40
2023-01-07T16:40:40.172Z,4.40
2023-01-07T16:43:33.503Z,4.30
2023-01-07T16:46:24.219Z,4.20
2023-01-07T16:49:23.152Z,4.20
2023-01-07T16:51:55.603Z,4.10
2023-01-07T16:54:39.960Z,4.00
2023-01-07T16:57:41.647Z,4.00
2023-01-07T17:00:20.727Z,4.00
2023-01-07T17:03:01.434Z,3.90
2023-01-07T17:05:33.794Z,3.90
2023-01-07T17:08:07.687Z,3.80
2023-01-07T17:10:40.668Z,3.80
2023-01-07T17:13:40.356Z,3.70
2023-01-07T17:16:35.038Z,3.90
2023-01-07T17:19:27.125Z,3.70
2023-01-07T17:24:49.565Z,3.90
2023-01-07T17:27:28.159Z,3.70
2023-01-07T17:30:05.467Z,3.70
2023-01-07T17:32:39.234Z,3.60
2023-01-07T17:35:10.040Z,3.50
2023-01-07T17:40:11.768Z,3.40
2023-01-07T17:42:56.419Z,3.40
2023-01-07T17:45:29.973Z,3.40
2023-01-07T17:50:39.072Z,3.60
2023-01-07T17:55:39.176Z,3.40
2023-01-07T17:58:18.660Z,3.60
2023-01-07T18:00:51.340Z,3.60
2023-01-07T18:11:07.389Z,3.40
2023-01-07T18:16:14.840Z,3.20
2023-01-07T18:23:46.609Z,3.10
2023-01-07T18:31:20.399Z,3.10
2023-01-07T18:38:53.267Z,3.00
2023-01-07T18:59:02.987Z,2.90
2023-01-07T19:01:35.793Z,2.80
2023-01-07T19:16:41.510Z,2.50
2023-01-07T19:31:48.195Z,2.50
2023-01-07T19:39:21.415Z,2.40
2023-01-07T19:41:52.190Z,2.50
2023-01-07T19:46:55.264Z,2.40
2023-01-07T19:49:25.266Z,2.60
2023-01-07T20:07:03.915Z,2.40
2023-01-07T21:02:27.721Z,2.10
2023-01-07T21:32:38.717Z,2.10
2023-01-07T21:35:09.659Z,2.10
2023-01-07T21:40:11.361Z,2.00
2023-01-07T22:17:56.031Z,1.70
2023-01-07T22:28:00.616Z,1.70
2023-01-07T22:30:33.248Z,4.40
2023-01-07T22:35:37.741Z,1.70
2023-01-07T22:38:08.580Z,1.70
2023-01-07T22:40:40.315Z,1.60
2023-01-07T22:43:14.912Z,1.60
2023-01-07T22:45:53.021Z,1.60
2023-01-07T22:48:27.927Z,1.60
2023-01-07T22:51:03.689Z,1.70
2023-01-07T22:56:05.450Z,1.90
2023-01-07T23:01:15.499Z,1.70
2023-01-07T23:03:49.311Z,1.70
2023-01-07T23:06:20.733Z,2.00
2023-01-07T23:31:40.162Z,2.20
2023-01-07T23:34:13.749Z,2.20
2023-01-07T23:49:17.505Z,2.20
